Time,TemperatureF,DewpointF,PressureIn,WindDirection,WindDirectionDegrees,WindSpeedMPH,WindSpeedGustMPH,Humidity,HourlyPrecipIn,Conditions,Clouds,dailyrainin,SoftwareType,DateUTC
2013-02-24 00:02:00,47.7,44.6,29.99,ENE,65,0.0,0.0,89,0.00,,,0.00,Wunderground v.1.15,2013-02-24 08:02:00,
2013-02-24 00:12:00,47.4,44.6,29.99,ENE,65,0.0,0.0,90,0.00,,,0.00,Wunderground v.1.15,2013-02-24 08:12:00,
2013-02-24 00:22:00,47.0,43.9,30.00,ENE,65,0.0,0.0,89,0.00,,,0.00,Wunderground v.1.15,2013-02-24 08:22:00,
2013-02-24 00:32:00,46.7,43.9,29.99,ENE,65,0.0,0.0,90,0.00,,,0.00,Wunderground v.1.15,2013-02-24 08:32:00,
2013-02-24 00:42:00,46.5,43.7,29.98,ENE,65,0.0,1.0,90,0.00,,,0.00,Wunderground v.1.15,2013-02-24 08:42:00,
2013-02-24 00:52:00,46.3,43.5,29.99,ENE,65,0.0,0.0,90,0.00,,,0.00,Wunderground v.1.15,2013-02-24 08:52:00,
2013-02-24 01:02:00,46.0,43.2,29.99,ENE,65,0.0,0.0,90,0.00,,,0.00,Wunderground v.1.15,2013-02-24 09:02:00,
2013-02-24 01:12:00,45.8,43.0,29.98,ENE,65,0.0,0.0,90,0.00,,,0.00,Wunderground v.1.15,2013-02-24 09:12:00,
2013-02-24 01:22:00,45.4,42.9,29.99,ENE,65,0.0,0.0,91,0.00,,,0.00,Wunderground v.1.15,2013-02-24 09:22:00,
2013-02-24 01:32:00,45.1,42.6,29.99,ENE,65,0.0,0.0,91,0.00,,,0.00,Wunderground v.1.15,2013-02-24 09:32:00,
2013-02-24 01:42:00,45.0,42.5,29.99,ENE,65,0.0,0.0,91,0.00,,,0.00,Wunderground v.1.15,2013-02-24 09:42:00,
2013-02-24 01:52:00,44.8,42.3,29.99,ENE,65,0.0,1.0,91,0.00,,,0.00,Wunderground v.1.15,2013-02-24 09:52:00,
2013-02-24 02:02:00,44.6,42.1,29.99,ENE,65,0.0,0.0,91,0.00,,,0.00,Wunderground v.1.15,2013-02-24 10:02:00,
2013-02-24 02:12:00,44.5,42.0,29.99,ENE,65,0.0,0.0,91,0.00,,,0.00,Wunderground v.1.15,2013-02-24 10:12:00,
2013-02-24 02:22:00,44.4,41.9,29.98,ENE,65,0.0,1.0,91,0.00,,,0.00,Wunderground v.1.15,2013-02-24 10:22:00,
2013-02-24 02:32:00,44.2,41.7,29.98,ENE,65,0.0,0.0,91,0.00,,,0.00,Wunderground v.1.15,2013-02-24 10:32:00,
2013-02-24 02:42:00,44.0,41.5,29.98,ENE,65,1.0,1.0,91,0.00,,,0.00,Wunderground v.1.15,2013-02-24 10:42:00,
2013-02-24 02:52:00,43.8,41.3,29.99,ENE,65,0.0,0.0,91,0.00,,,0.00,Wunderground v.1.15,2013-02-24 10:52:00,
2013-02-24 03:02:00,43.6,41.1,29.98,ENE,65,0.0,0.0,91,0.00,,,0.00,Wunderground v.1.15,2013-02-24 11:02:00,
2013-02-24 03:12:00,43.4,40.9,29.99,ENE,65,0.0,0.0,91,0.00,,,0.00,Wunderground v.1.15,2013-02-24 11:12:00,
2013-02-24 03:22:00,43.2,40.8,29.99,ENE,65,0.0,0.0,91,0.00,,,0.00,Wunderground v.1.15,2013-02-24 11:22:00,
2013-02-24 03:32:00,43.1,40.7,29.99,ENE,65,0.0,1.0,91,0.00,,,0.00,Wunderground v.1.15,2013-02-24 11:32:00,
2013-02-24 03:42:00,43.1,40.7,30.00,ENE,65,1.0,1.0,91,0.00,,,0.00,Wunderground v.1.15,2013-02-24 11:42:00,
2013-02-24 03:52:00,43.4,40.9,30.00,ENE,65,1.0,1.0,91,0.00,,,0.00,Wunderground v.1.15,2013-02-24 11:52:00,
2013-02-24 04:02:00,43.8,41.3,29.99,ENE,65,0.0,1.0,91,0.00,,,0.00,Wunderground v.1.15,2013-02-24 12:02:00,
2013-02-24 04:12:00,43.8,41.3,30.00,ENE,65,1.0,1.0,91,0.00,,,0.00,Wunderground v.1.15,2013-02-24 12:12:00,
2013-02-24 04:22:00,44.0,41.5,30.00,ENE,65,1.0,1.0,91,0.00,,,0.00,Wunderground v.1.15,2013-02-24 12:22:00,
2013-02-24 04:32:00,44.3,42.1,30.01,ENE,65,0.0,0.0,92,0.00,,,0.00,Wunderground v.1.15,2013-02-24 12:32:00,
2013-02-24 04:42:00,44.5,42.3,30.01,ENE,65,0.0,0.0,92,0.00,,,0.00,Wunderground v.1.15,2013-02-24 12:42:00,
2013-02-24 04:52:00,44.4,42.2,30.01,ENE,65,0.0,0.0,92,0.00,,,0.00,Wunderground v.1.15,2013-02-24 12:52:00,
2013-02-24 05:02:00,44.3,41.8,30.01,ENE,65,1.0,1.0,91,0.00,,,0.00,Wunderground v.1.15,2013-02-24 13:02:00,
2013-02-24 05:12:00,44.0,41.5,30.01,ENE,65,0.0,0.0,91,0.00,,,0.00,Wunderground v.1.15,2013-02-24 13:12:00,
2013-02-24 05:22:00,43.9,41.4,30.02,ENE,65,0.0,0.0,91,0.00,,,0.00,Wunderground v.1.15,2013-02-24 13:22:00,
2013-02-24 05:32:00,43.6,41.4,30.02,ENE,65,0.0,0.0,92,0.00,,,0.00,Wunderground v.1.15,2013-02-24 13:32:00,
2013-02-24 05:42:00,43.2,41.0,30.02,ENE,65,0.0,1.0,92,0.00,,,0.00,Wunderground v.1.15,2013-02-24 13:42:00,
2013-02-24 05:52:00,43.2,41.0,30.02,ENE,65,0.0,0.0,92,0.00,,,0.00,Wunderground v.1.15,2013-02-24 13:52:00,
2013-02-24 06:02:00,42.8,40.6,30.03,ENE,65,0.0,0.0,92,0.00,,,0.00,Wunderground v.1.15,2013-02-24 14:02:00,
2013-02-24 06:12:00,42.6,40.4,30.03,ENE,65,0.0,0.0,92,0.00,,,0.00,Wunderground v.1.15,2013-02-24 14:12:00,
2013-02-24 06:22:00,42.4,40.2,30.04,ENE,65,0.0,0.0,92,0.00,,,0.00,Wunderground v.1.15,2013-02-24 14:22:00,
2013-02-24 06:32:00,42.1,39.9,30.04,ENE,65,0.0,0.0,92,0.00,,,0.00,Wunderground v.1.15,2013-02-24 14:32:00,
2013-02-24 06:42:00,42.1,39.7,30.05,ENE,65,0.0,0.0,91,0.00,,,0.00,Wunderground v.1.15,2013-02-24 14:42:00,
2013-02-24 06:52:00,42.0,39.8,30.05,ENE,65,0.0,0.0,92,0.00,,,0.00,Wunderground v.1.15,2013-02-24 14:52:00,
2013-02-24 07:02:00,42.4,40.2,30.06,ENE,65,0.0,0.0,92,0.00,,,0.00,Wunderground v.1.15,2013-02-24 15:02:00,
2013-02-24 07:12:00,43.0,40.8,30.07,ENE,65,0.0,2.0,92,0.00,,,0.00,Wunderground v.1.15,2013-02-24 15:12:00,
2013-02-24 07:22:00,44.6,42.4,30.07,ENE,65,0.0,0.0,92,0.00,,,0.00,Wunderground v.1.15,2013-02-24 15:22:00,
2013-02-24 07:32:00,45.7,43.5,30.07,ENE,65,0.0,0.0,92,0.00,,,0.00,Wunderground v.1.15,2013-02-24 15:32:00,
2013-02-24 07:42:00,47.1,44.6,30.08,ENE,65,0.0,1.0,91,0.00,,,0.00,Wunderground v.1.15,2013-02-24 15:42:00,
2013-02-24 07:52:00,48.1,45.0,30.08,ENE,65,0.0,0.0,89,0.00,,,0.00,Wunderground v.1.15,2013-02-24 15:52:00,
2013-02-24 08:02:00,49.3,45.6,30.09,ENE,65,0.0,0.0,87,0.00,,,0.00,Wunderground v.1.15,2013-02-24 16:02:00,
2013-02-24 08:12:00,50.6,45.3,30.09,ENE,65,0.0,0.0,82,0.00,,,0.00,Wunderground v.1.15,2013-02-24 16:12:00,
2013-02-24 08:22:00,52.2,44.5,30.09,ENE,65,0.0,0.0,75,0.00,,,0.00,Wunderground v.1.15,2013-02-24 16:22:00,
2013-02-24 08:32:00,54.1,38.3,30.09,ENE,65,0.0,1.0,55,0.00,,,0.00,Wunderground v.1.15,2013-02-24 16:32:00,
2013-02-24 08:42:00,54.8,42.4,30.09,NNW,329,1.0,1.0,63,0.00,,,0.00,Wunderground v.1.15,2013-02-24 16:42:00,
2013-02-24 08:52:00,55.4,39.5,30.10,NNW,329,1.0,1.0,55,0.00,,,0.00,Wunderground v.1.15,2013-02-24 16:52:00,
2013-02-24 09:02:00,56.3,42.6,30.10,WNW,302,2.0,3.0,60,0.00,,,0.00,Wunderground v.1.15,2013-02-24 17:02:00,
2013-02-24 09:12:00,56.9,42.3,30.10,NW,314,2.0,2.0,58,0.00,,,0.00,Wunderground v.1.15,2013-02-24 17:12:00,
2013-02-24 09:22:00,57.4,41.4,30.10,NW,314,1.0,2.0,55,0.00,,,0.00,Wunderground v.1.15,2013-02-24 17:22:00,
2013-02-24 09:32:00,58.1,40.1,30.10,NW,308,1.0,1.0,51,0.00,,,0.00,Wunderground v.1.15,2013-02-24 17:32:00,
2013-02-24 09:42:00,58.1,35.1,30.11,SW,235,2.0,2.0,42,0.00,,,0.00,Wunderground v.1.15,2013-02-24 17:42:00,
2013-02-24 09:52:00,58.5,34.2,30.11,SW,231,1.0,1.0,40,0.00,,,0.00,Wunderground v.1.15,2013-02-24 17:52:00,
2013-02-24 10:02:00,59.4,31.0,30.11,WSW,238,2.0,3.0,34,0.00,,,0.00,Wunderground v.1.15,2013-02-24 18:02:00,
2013-02-24 10:12:00,60.3,29.5,30.10,WSW,240,3.0,4.0,31,0.00,,,0.00,Wunderground v.1.15,2013-02-24 18:12:00,
2013-02-24 10:22:00,60.5,28.9,30.10,South,181,4.0,4.0,30,0.00,,,0.00,Wunderground v.1.15,2013-02-24 18:22:00,
2013-02-24 10:32:00,61.4,28.8,30.10,SSW,202,3.0,6.0,29,0.00,,,0.00,Wunderground v.1.15,2013-02-24 18:32:00,
2013-02-24 10:42:00,61.9,28.4,30.10,NW,309,3.0,3.0,28,0.00,,,0.00,Wunderground v.1.15,2013-02-24 18:42:00,
2013-02-24 10:52:00,62.1,24.8,30.10,East,101,3.0,3.0,24,0.00,,,0.00,Wunderground v.1.15,2013-02-24 18:52:00,
2013-02-24 11:02:00,62.7,26.3,30.10,WSW,248,2.0,2.0,25,0.00,,,0.00,Wunderground v.1.15,2013-02-24 19:02:00,
2013-02-24 11:12:00,63.1,24.7,30.10,SW,217,3.0,3.0,23,0.00,,,0.00,Wunderground v.1.15,2013-02-24 19:12:00,
2013-02-24 11:22:00,63.3,22.7,30.10,West,274,2.0,5.0,21,0.00,,,0.00,Wunderground v.1.15,2013-02-24 19:22:00,
2013-02-24 11:32:00,63.5,23.9,30.10,SW,236,4.0,4.0,22,0.00,,,0.00,Wunderground v.1.15,2013-02-24 19:32:00,
2013-02-24 11:42:00,63.5,22.8,30.10,WSW,250,4.0,4.0,21,0.00,,,0.00,Wunderground v.1.15,2013-02-24 19:42:00,
2013-02-24 11:52:00,64.0,22.1,30.09,SW,232,3.0,3.0,20,0.00,,,0.00,Wunderground v.1.15,2013-02-24 19:52:00,
2013-02-24 12:02:00,64.9,22.8,30.08,ENE,60,2.0,2.0,20,0.00,,,0.00,Wunderground v.1.15,2013-02-24 20:02:00,
2013-02-24 12:12:00,64.7,18.8,30.08,South,191,4.0,4.0,17,0.00,,,0.00,Wunderground v.1.15,2013-02-24 20:12:00,
2013-02-24 12:22:00,65.1,19.2,30.08,WSW,244,2.0,2.0,17,0.00,,,0.00,Wunderground v.1.15,2013-02-24 20:22:00,
2013-02-24 12:32:00,66.2,23.9,30.08,SW,223,2.0,3.0,20,0.00,,,0.00,Wunderground v.1.15,2013-02-24 20:32:00,
2013-02-24 12:42:00,66.5,22.9,30.07,SW,223,3.0,3.0,19,0.00,,,0.00,Wunderground v.1.15,2013-02-24 20:42:00,
2013-02-24 12:52:00,66.1,21.3,30.07,NNW,330,3.0,8.0,18,0.00,,,0.00,Wunderground v.1.15,2013-02-24 20:52:00,
2013-02-24 13:02:00,65.8,19.7,30.07,WSW,242,5.0,5.0,17,0.00,,,0.00,Wunderground v.1.15,2013-02-24 21:02:00,
2013-02-24 13:12:00,66.0,18.5,30.06,NNE,31,3.0,3.0,16,0.00,,,0.00,Wunderground v.1.15,2013-02-24 21:12:00,
2013-02-24 13:22:00,66.7,20.5,30.06,NW,317,2.0,2.0,17,0.00,,,0.00,Wunderground v.1.15,2013-02-24 21:22:00,
2013-02-24 13:32:00,67.5,19.7,30.06,WNW,286,2.0,2.0,16,0.00,,,0.00,Wunderground v.1.15,2013-02-24 21:32:00,
2013-02-24 13:42:00,67.8,18.4,30.05,North,350,4.0,5.0,15,0.00,,,0.00,Wunderground v.1.15,2013-02-24 21:42:00,
2013-02-24 13:52:00,67.4,21.0,30.05,WNW,294,4.0,4.0,17,0.00,,,0.00,Wunderground v.1.15,2013-02-24 21:52:00,
2013-02-24 14:02:00,67.7,18.3,30.05,SW,234,3.0,3.0,15,0.00,,,0.00,Wunderground v.1.15,2013-02-24 22:02:00,
2013-02-24 14:12:00,68.1,18.7,30.05,NW,309,3.0,3.0,15,0.00,,,0.00,Wunderground v.1.15,2013-02-24 22:12:00,
2013-02-24 14:22:00,68.8,19.2,30.04,SW,217,2.0,5.0,15,0.00,,,0.00,Wunderground v.1.15,2013-02-24 22:22:00,
2013-02-24 14:32:00,69.1,17.8,30.04,SSE,159,3.0,3.0,14,0.00,,,0.00,Wunderground v.1.15,2013-02-24 22:32:00,
2013-02-24 14:42:00,69.2,17.9,30.04,SSW,209,3.0,3.0,14,0.00,,,0.00,Wunderground v.1.15,2013-02-24 22:42:00,
2013-02-24 14:52:00,69.0,16.0,30.04,SSE,161,4.0,4.0,13,0.00,,,0.00,Wunderground v.1.15,2013-02-24 22:52:00,
2013-02-24 15:02:00,69.4,18.1,30.04,WSW,240,4.0,5.0,14,0.00,,,0.00,Wunderground v.1.15,2013-02-24 23:02:00,
2013-02-24 15:12:00,69.0,17.8,30.03,NW,315,3.0,3.0,14,0.00,,,0.00,Wunderground v.1.15,2013-02-24 23:12:00,
2013-02-24 15:22:00,69.2,17.9,30.04,SSW,192,5.0,5.0,14,0.00,,,0.00,Wunderground v.1.15,2013-02-24 23:22:00,
2013-02-24 15:32:00,68.9,24.9,30.04,WNW,303,6.0,6.0,19,0.00,,,0.00,Wunderground v.1.15,2013-02-24 23:32:00,
2013-02-24 15:42:00,68.8,24.8,30.04,WNW,292,4.0,4.0,19,0.00,,,0.00,Wunderground v.1.15,2013-02-24 23:42:00,
2013-02-24 15:52:00,68.3,23.1,30.04,SW,228,6.0,8.0,18,0.00,,,0.00,Wunderground v.1.15,2013-02-24 23:52:00,
2013-02-24 16:02:00,68.3,24.4,30.04,SW,231,5.0,8.0,19,0.00,,,0.00,Wunderground v.1.15,2013-02-25 00:02:00,
2013-02-24 16:12:00,67.4,22.4,30.05,West,261,6.0,6.0,18,0.00,,,0.00,Wunderground v.1.15,2013-02-25 00:12:00,
2013-02-24 16:22:00,67.2,22.2,30.05,WSW,242,5.0,5.0,18,0.00,,,0.00,Wunderground v.1.15,2013-02-25 00:22:00,
2013-02-24 16:32:00,66.5,21.6,30.05,WNW,282,5.0,5.0,18,0.00,,,0.00,Wunderground v.1.15,2013-02-25 00:32:00,
2013-02-24 16:42:00,66.5,22.9,30.05,West,269,5.0,5.0,19,0.00,,,0.00,Wunderground v.1.15,2013-02-25 00:42:00,
2013-02-24 16:52:00,66.0,21.2,30.05,West,275,4.0,4.0,18,0.00,,,0.00,Wunderground v.1.15,2013-02-25 00:52:00,
2013-02-24 17:02:00,65.5,20.8,30.05,WNW,300,4.0,5.0,18,0.00,,,0.00,Wunderground v.1.15,2013-02-25 01:02:00,
2013-02-24 17:12:00,64.4,19.9,30.05,West,263,4.0,4.0,18,0.00,,,0.00,Wunderground v.1.15,2013-02-25 01:12:00,
2013-02-24 17:22:00,63.7,20.6,30.06,NW,304,4.0,4.0,19,0.00,,,0.00,Wunderground v.1.15,2013-02-25 01:22:00,
2013-02-24 17:32:00,63.1,18.9,30.06,WNW,288,3.0,4.0,18,0.00,,,0.00,Wunderground v.1.15,2013-02-25 01:32:00,
2013-02-24 17:42:00,62.7,19.8,30.07,WNW,291,3.0,3.0,19,0.00,,,0.00,Wunderground v.1.15,2013-02-25 01:42:00,
2013-02-24 17:52:00,62.2,19.4,30.07,WNW,284,3.0,3.0,19,0.00,,,0.00,Wunderground v.1.15,2013-02-25 01:52:00,
2013-02-24 18:02:00,61.6,20.1,30.08,NW,309,2.0,2.0,20,0.00,,,0.00,Wunderground v.1.15,2013-02-25 02:02:00,
2013-02-24 18:12:00,61.1,23.0,30.08,NW,308,3.0,6.0,23,0.00,,,0.00,Wunderground v.1.15,2013-02-25 02:12:00,
2013-02-24 18:22:00,60.6,22.6,30.09,NW,319,3.0,3.0,23,0.00,,,0.00,Wunderground v.1.15,2013-02-25 02:22:00,
2013-02-24 18:32:00,60.1,22.1,30.09,NW,308,3.0,4.0,23,0.00,,,0.00,Wunderground v.1.15,2013-02-25 02:32:00,
2013-02-24 18:42:00,59.6,23.7,30.09,NNW,338,3.0,3.0,25,0.00,,,0.00,Wunderground v.1.15,2013-02-25 02:42:00,
2013-02-24 18:52:00,59.2,24.3,30.10,NW,309,3.0,3.0,26,0.00,,,0.00,Wunderground v.1.15,2013-02-25 02:52:00,
2013-02-24 19:02:00,58.6,24.7,30.11,NW,306,2.0,2.0,27,0.00,,,0.00,Wunderground v.1.15,2013-02-25 03:02:00,
2013-02-24 19:12:00,58.2,25.2,30.11,NW,317,2.0,3.0,28,0.00,,,0.00,Wunderground v.1.15,2013-02-25 03:12:00,
2013-02-24 19:22:00,57.8,26.5,30.11,NW,315,2.0,2.0,30,0.00,,,0.00,Wunderground v.1.15,2013-02-25 03:22:00,
2013-02-24 19:32:00,57.3,27.7,30.12,WNW,298,1.0,1.0,32,0.00,,,0.00,Wunderground v.1.15,2013-02-25 03:32:00,
2013-02-24 19:42:00,56.9,28.1,30.12,NW,315,2.0,2.0,33,0.00,,,0.00,Wunderground v.1.15,2013-02-25 03:42:00,
2013-02-24 19:52:00,56.6,29.9,30.13,NW,315,3.0,3.0,36,0.00,,,0.00,Wunderground v.1.15,2013-02-25 03:52:00,
2013-02-24 20:02:00,56.3,30.3,30.13,NW,311,2.0,2.0,37,0.00,,,0.00,Wunderground v.1.15,2013-02-25 04:02:00,
2013-02-24 20:12:00,56.0,30.7,30.13,NW,311,1.0,1.0,38,0.00,,,0.00,Wunderground v.1.15,2013-02-25 04:12:00,
2013-02-24 20:22:00,55.7,31.1,30.13,NW,311,0.0,0.0,39,0.00,,,0.00,Wunderground v.1.15,2013-02-25 04:22:00,
2013-02-24 20:32:00,54.8,31.5,30.14,NW,311,0.0,0.0,41,0.00,,,0.00,Wunderground v.1.15,2013-02-25 04:32:00,
2013-02-24 20:42:00,53.9,30.7,30.14,NW,311,0.0,0.0,41,0.00,,,0.00,Wunderground v.1.15,2013-02-25 04:42:00,
2013-02-24 20:52:00,53.2,30.1,30.15,NW,311,0.0,0.0,41,0.00,,,0.00,Wunderground v.1.15,2013-02-25 04:52:00,
2013-02-24 21:02:00,52.4,31.7,30.15,NW,311,0.0,0.0,45,0.00,,,0.00,Wunderground v.1.15,2013-02-25 05:02:00,
2013-02-24 21:12:00,51.6,31.5,30.16,NW,311,1.0,1.0,46,0.00,,,0.00,Wunderground v.1.15,2013-02-25 05:12:00,
2013-02-24 21:22:00,50.9,30.3,30.16,NW,311,0.0,1.0,45,0.00,,,0.00,Wunderground v.1.15,2013-02-25 05:22:00,
2013-02-24 21:32:00,50.4,29.3,30.17,NW,311,0.0,1.0,44,0.00,,,0.00,Wunderground v.1.15,2013-02-25 05:32:00,
2013-02-24 21:42:00,50.0,28.4,30.17,NW,325,1.0,1.0,43,0.00,,,0.00,Wunderground v.1.15,2013-02-25 05:42:00,
2013-02-24 21:52:00,49.6,29.1,30.17,NW,325,0.0,0.0,45,0.00,,,0.00,Wunderground v.1.15,2013-02-25 05:52:00,
2013-02-24 22:02:00,49.2,29.3,30.17,NW,325,0.0,0.0,46,0.00,,,0.00,Wunderground v.1.15,2013-02-25 06:02:00,
2013-02-24 22:12:00,48.6,28.7,30.17,NW,325,0.0,0.0,46,0.00,,,0.00,Wunderground v.1.15,2013-02-25 06:12:00,
2013-02-24 22:22:00,48.2,29.4,30.17,NW,325,0.0,0.0,48,0.00,,,0.00,Wunderground v.1.15,2013-02-25 06:22:00,
2013-02-24 22:32:00,47.7,29.5,30.17,NW,325,0.0,0.0,49,0.00,,,0.00,Wunderground v.1.15,2013-02-25 06:32:00,
2013-02-24 22:42:00,47.5,30.7,30.17,NW,325,0.0,0.0,52,0.00,,,0.00,Wunderground v.1.15,2013-02-25 06:42:00,
2013-02-24 22:52:00,47.6,29.4,30.17,NW,325,1.0,2.0,49,0.00,,,0.00,Wunderground v.1.15,2013-02-25 06:52:00,
2013-02-24 23:02:00,47.0,29.8,30.17,NW,325,0.0,0.0,51,0.00,,,0.00,Wunderground v.1.15,2013-02-25 07:02:00,
2013-02-24 23:12:00,46.8,31.9,30.17,NW,325,0.0,0.0,56,0.00,,,0.00,Wunderground v.1.15,2013-02-25 07:12:00,
2013-02-24 23:22:00,47.5,30.7,30.17,NW,325,0.0,0.0,52,0.00,,,0.00,Wunderground v.1.15,2013-02-25 07:22:00,
2013-02-24 23:32:00,46.7,30.5,30.17,NW,325,0.0,0.0,53,0.00,,,0.00,Wunderground v.1.15,2013-02-25 07:32:00,
2013-02-24 23:42:00,45.7,30.4,30.18,NW,325,0.0,0.0,55,0.00,,,0.00,Wunderground v.1.15,2013-02-25 07:42:00,
2013-02-24 23:52:00,44.9,30.6,30.18,NW,325,0.0,0.0,57,0.00,,,0.00,Wunderground v.1.15,2013-02-25 07:52:00,